createdAt,value
2023-02-09T00:01:30.918Z,30.90
2023-02-09T00:03:59.296Z,38.15
2023-02-09T00:06:30.053Z,32.40
2023-02-09T00:08:58.244Z,35.40
2023-02-09T00:11:42.521Z,36.65
2023-02-09T00:14:10.647Z,38.80
2023-02-09T00:16:38.654Z,33.08
2023-02-09T00:19:06.637Z,29.83
2023-02-09T00:21:36.106Z,31.13
2023-02-09T00:24:04.164Z,35.90
2023-02-09T00:26:32.407Z,29.98
2023-02-09T00:29:00.865Z,32.75
2023-02-09T00:31:28.854Z,29.02
2023-02-09T00:33:56.871Z,36.33
2023-02-09T00:36:24.799Z,35.72
2023-02-09T00:38:54.082Z,48.22
2023-02-09T00:41:42.516Z,62.15
2023-02-09T00:44:11.296Z,49.08
2023-02-09T00:46:39.473Z,47.05
2023-02-09T00:49:07.863Z,41.83
2023-02-09T00:51:35.927Z,36.88
2023-02-09T00:54:05.367Z,47.05
2023-02-09T00:56:33.348Z,36.30
2023-02-09T00:59:01.348Z,39.50
2023-02-09T01:01:29.852Z,36.10
2023-02-09T01:03:57.962Z,33.92
2023-02-09T01:06:25.980Z,39.00
2023-02-09T01:08:53.951Z,34.63
2023-02-09T01:11:28.053Z,31.17
2023-02-09T01:13:57.167Z,35.53
2023-02-09T01:16:26.005Z,36.08
2023-02-09T01:18:54.130Z,37.88
2023-02-09T01:21:23.288Z,35.28
2023-02-09T01:23:51.863Z,34.58
2023-02-09T01:26:20.554Z,41.67
2023-02-09T01:28:52.417Z,41.58
2023-02-09T01:31:23.705Z,36.75
2023-02-09T01:33:52.229Z,40.42
2023-02-09T01:36:20.233Z,39.55
2023-02-09T01:38:48.618Z,36.42
2023-02-09T01:41:16.715Z,32.05
2023-02-09T01:44:00.166Z,37.28
2023-02-09T01:46:30.476Z,39.00
2023-02-09T01:49:04.293Z,37.33
2023-02-09T01:51:36.332Z,33.35
2023-02-09T01:54:09.108Z,37.70
2023-02-09T01:56:40.457Z,32.97
2023-02-09T01:59:10.739Z,37.90
2023-02-09T02:01:39.257Z,35.05
2023-02-09T02:04:07.939Z,30.83
2023-02-09T02:06:36.048Z,30.55
2023-02-09T02:09:10.146Z,43.33
2023-02-09T02:11:39.710Z,39.40
2023-02-09T02:14:25.987Z,33.80
2023-02-09T02:17:07.375Z,34.17
2023-02-09T02:20:04.836Z,43.78
2023-02-09T02:22:52.120Z,39.53
2023-02-09T02:25:43.332Z,37.65
2023-02-09T02:28:34.224Z,34.72
2023-02-09T02:31:38.530Z,35.72
2023-02-09T02:34:12.890Z,31.15
2023-02-09T02:36:52.289Z,39.15
2023-02-09T02:39:27.178Z,37.10
2023-02-09T02:42:18.328Z,37.22
2023-02-09T02:44:54.080Z,37.08
2023-02-09T02:47:24.916Z,39.08
2023-02-09T02:49:58.809Z,48.55
2023-02-09T02:55:01.996Z,38.58
2023-02-09T02:57:34.801Z,38.13
2023-02-09T03:00:07.842Z,34.17
2023-02-09T03:02:41.239Z,35.72
2023-02-09T03:05:11.431Z,33.83
2023-02-09T03:07:39.447Z,35.47
2023-02-09T03:10:26.841Z,33.50
2023-02-09T03:13:08.122Z,36.30
2023-02-09T03:15:45.831Z,40.72
2023-02-09T03:18:24.421Z,36.28
2023-02-09T03:20:58.109Z,37.63
2023-02-09T03:23:33.936Z,32.40
2023-02-09T03:26:10.639Z,36.80
2023-02-09T03:28:42.553Z,36.00
2023-02-09T03:31:10.942Z,38.13
2023-02-09T03:33:40.535Z,36.13
2023-02-09T03:36:16.396Z,35.22
2023-02-09T03:38:44.361Z,38.15
2023-02-09T03:41:12.648Z,37.22
2023-02-09T03:43:57.986Z,35.95
2023-02-09T03:46:25.999Z,38.40
2023-02-09T03:48:54.013Z,43.05
2023-02-09T03:51:23.335Z,38.92
2023-02-09T03:53:51.314Z,36.97
2023-02-09T03:56:19.219Z,38.45
2023-02-09T03:58:47.209Z,37.55
2023-02-09T04:01:15.208Z,37.20
2023-02-09T04:03:43.280Z,34.58
2023-02-09T04:06:11.236Z,36.45
2023-02-09T04:08:43.202Z,36.67
2023-02-09T04:11:11.428Z,34.63
2023-02-09T04:13:39.379Z,40.72
2023-02-09T04:16:07.904Z,36.70
2023-02-09T04:18:36.086Z,36.70
2023-02-09T04:21:04.134Z,38.92
2023-02-09T04:23:32.071Z,40.80
2023-02-09T04:26:01.442Z,42.47
2023-02-09T04:28:29.453Z,38.88
2023-02-09T04:30:58.318Z,38.58
2023-02-09T04:33:26.862Z,42.17
2023-02-09T04:35:54.809Z,34.72
2023-02-09T04:38:23.508Z,52.22
2023-02-09T04:40:54.848Z,39.28
2023-02-09T04:43:24.370Z,42.38
2023-02-09T04:45:52.471Z,33.53
2023-02-09T04:48:22.610Z,36.78
2023-02-09T04:50:51.337Z,39.33
2023-02-09T04:53:19.778Z,35.50
2023-02-09T04:55:48.836Z,36.85
2023-02-09T04:58:36.302Z,43.92
2023-02-09T05:01:06.684Z,39.30
2023-02-09T05:03:34.913Z,37.00
2023-02-09T05:06:05.401Z,37.15
2023-02-09T05:08:33.735Z,46.33
2023-02-09T05:11:01.806Z,42.13
2023-02-09T05:13:29.810Z,42.03
2023-02-09T05:15:57.932Z,38.03
2023-02-09T05:18:27.360Z,42.80
2023-02-09T05:20:55.263Z,40.53
2023-02-09T05:23:23.197Z,49.40
2023-02-09T05:25:51.114Z,40.72
2023-02-09T05:28:19.116Z,40.50
2023-02-09T05:30:53.640Z,40.35
2023-02-09T05:33:21.947Z,38.83
2023-02-09T05:35:52.325Z,40.00
2023-02-09T05:38:20.413Z,45.90
2023-02-09T05:40:48.800Z,41.00
2023-02-09T05:43:16.975Z,38.28
2023-02-09T05:45:44.920Z,45.20
2023-02-09T05:48:12.865Z,43.70
2023-02-09T05:50:41.184Z,41.55
2023-02-09T05:53:10.767Z,44.53
2023-02-09T05:55:38.733Z,41.38
2023-02-09T05:58:06.808Z,40.63
2023-02-09T06:00:34.708Z,38.30
2023-02-09T06:03:03.196Z,40.88
2023-02-09T06:05:31.130Z,50.95
2023-02-09T06:07:59.148Z,43.30
2023-02-09T06:10:28.472Z,43.33
2023-02-09T06:12:56.392Z,48.50
2023-02-09T06:15:24.376Z,41.67
2023-02-09T06:17:52.367Z,44.53
2023-02-09T06:20:20.432Z,53.30
2023-02-09T06:22:48.350Z,46.00
2023-02-09T06:25:16.576Z,45.80
2023-02-09T06:27:45.986Z,43.80
2023-02-09T06:30:14.757Z,46.50
2023-02-09T06:32:44.633Z,45.92
2023-02-09T06:35:12.535Z,45.03
2023-02-09T06:37:40.510Z,43.08
2023-02-09T06:40:08.938Z,38.80
2023-02-09T06:42:44.787Z,40.50
2023-02-09T06:45:15.050Z,35.40
2023-02-09T06:47:43.350Z,46.90
2023-02-09T06:50:12.395Z,38.28
2023-02-09T06:52:40.710Z,43.05
2023-02-09T06:55:09.253Z,36.25
2023-02-09T06:57:37.437Z,40.65
2023-02-09T07:00:08.416Z,34.53
2023-02-09T07:02:42.503Z,38.97
2023-02-09T07:05:11.157Z,43.13
2023-02-09T07:07:39.993Z,61.58
2023-02-09T07:10:09.142Z,47.83
2023-02-09T07:12:37.995Z,48.72
2023-02-09T07:15:07.822Z,42.78
2023-02-09T07:17:37.150Z,53.58
2023-02-09T07:20:06.012Z,52.22
2023-02-09T07:22:34.664Z,48.90
2023-02-09T07:25:02.536Z,46.45
2023-02-09T07:27:30.481Z,52.85
2023-02-09T07:30:00.750Z,53.33
2023-02-09T07:32:28.955Z,56.00
2023-02-09T07:34:58.267Z,66.32
2023-02-09T07:37:27.240Z,65.13
2023-02-09T07:39:55.343Z,70.20
2023-02-09T07:42:23.561Z,64.95
2023-02-09T07:44:51.535Z,60.42
2023-02-09T07:47:19.518Z,57.65
2023-02-09T07:49:47.445Z,56.83
2023-02-09T07:52:16.835Z,59.38
2023-02-09T07:54:45.074Z,57.28
2023-02-09T07:57:14.488Z,46.70
2023-02-09T07:59:42.443Z,38.35
2023-02-09T08:02:19.772Z,54.63
2023-02-09T08:04:47.995Z,52.03
2023-02-09T08:07:17.990Z,40.63
2023-02-09T08:09:46.610Z,46.22
2023-02-09T08:12:15.085Z,56.38
2023-02-09T08:14:48.559Z,63.25
2023-02-09T08:17:24.396Z,46.13
2023-02-09T08:19:55.685Z,40.70
2023-02-09T08:22:29.594Z,61.25
2023-02-09T08:24:58.268Z,49.08
2023-02-09T08:27:26.373Z,55.13
2023-02-09T08:29:54.436Z,56.88
2023-02-09T08:32:23.156Z,42.08
2023-02-09T08:34:51.095Z,44.15
2023-02-09T08:37:19.100Z,67.60
2023-02-09T08:39:48.698Z,195.52
2023-02-09T08:42:16.657Z,53.63
2023-02-09T08:44:44.571Z,77.97
2023-02-09T08:47:12.484Z,71.72
2023-02-09T08:49:41.576Z,79.85
2023-02-09T08:52:09.876Z,66.53
2023-02-09T08:54:38.037Z,54.00
2023-02-09T08:57:07.404Z,72.53
2023-02-09T08:59:35.453Z,63.25
2023-02-09T09:02:03.393Z,51.55
2023-02-09T09:04:31.463Z,64.30
2023-02-09T09:06:59.467Z,59.55
2023-02-09T09:09:27.439Z,55.58
2023-02-09T09:11:55.408Z,59.28
2023-02-09T09:14:26.662Z,56.90
2023-02-09T09:16:54.691Z,53.90
2023-02-09T09:19:22.651Z,51.70
2023-02-09T09:21:50.620Z,64.55
2023-02-09T09:24:18.558Z,67.50
2023-02-09T09:26:46.485Z,40.40
2023-02-09T09:29:14.446Z,59.25
2023-02-09T09:31:43.792Z,55.78
2023-02-09T09:34:11.771Z,59.55
2023-02-09T09:36:39.791Z,50.85
2023-02-09T09:39:07.938Z,71.20
2023-02-09T09:41:38.200Z,74.30
2023-02-09T09:44:15.082Z,51.70
2023-02-09T09:46:47.170Z,70.72
2023-02-09T09:49:23.075Z,50.88
2023-02-09T09:51:55.145Z,40.00
2023-02-09T09:54:25.922Z,53.58
2023-02-09T09:56:55.783Z,58.00
2023-02-09T09:59:27.214Z,51.53
2023-02-09T10:01:57.461Z,64.95
2023-02-09T10:04:25.567Z,55.75
2023-02-09T10:07:00.624Z,42.28
2023-02-09T10:09:39.060Z,66.28
2023-02-09T10:12:19.013Z,63.45
2023-02-09T10:14:46.949Z,63.35
2023-02-09T10:17:16.274Z,60.05
2023-02-09T10:19:44.250Z,48.95
2023-02-09T10:22:13.679Z,72.53
2023-02-09T10:24:42.146Z,52.42
2023-02-09T10:27:15.792Z,67.40
2023-02-09T10:29:43.718Z,54.65
2023-02-09T10:32:20.085Z,63.60
2023-02-09T10:34:50.687Z,55.72
2023-02-09T10:37:25.150Z,63.33
2023-02-09T10:40:07.038Z,57.08
2023-02-09T10:42:36.757Z,47.67
2023-02-09T10:45:15.063Z,50.45
2023-02-09T10:47:57.350Z,54.17
2023-02-09T10:50:25.282Z,52.85
2023-02-09T10:53:00.277Z,56.67
2023-02-09T10:55:35.545Z,44.72
2023-02-09T10:58:19.852Z,48.85
2023-02-09T11:00:53.241Z,69.80
2023-02-09T11:03:25.399Z,45.95
2023-02-09T11:06:02.909Z,47.47
2023-02-09T11:08:42.846Z,50.17
2023-02-09T11:11:32.161Z,56.92
2023-02-09T11:14:00.986Z,36.50
2023-02-09T11:16:58.628Z,43.72
2023-02-09T11:19:49.821Z,74.18
2023-02-09T11:22:28.966Z,71.13
2023-02-09T11:25:06.185Z,47.28
2023-02-09T11:27:49.169Z,69.85
2023-02-09T11:30:27.952Z,41.80
2023-02-09T11:33:00.668Z,76.60
2023-02-09T11:35:42.089Z,44.65
2023-02-09T11:38:16.097Z,59.58
2023-02-09T11:40:49.155Z,66.00
2023-02-09T11:43:22.796Z,62.95
2023-02-09T11:45:52.132Z,64.32
2023-02-09T11:48:26.051Z,79.47
2023-02-09T11:53:36.938Z,50.45
2023-02-09T11:56:07.163Z,58.08
2023-02-09T11:58:44.102Z,51.05
2023-02-09T12:01:26.778Z,63.92
2023-02-09T12:04:07.301Z,50.17
2023-02-09T12:06:39.940Z,61.25
2023-02-09T12:09:28.452Z,67.13
2023-02-09T12:12:06.833Z,52.17
2023-02-09T12:14:58.475Z,52.58
2023-02-09T12:17:34.770Z,48.30
2023-02-09T12:20:03.949Z,50.38
2023-02-09T12:22:46.824Z,64.28
2023-02-09T12:25:23.324Z,41.08
2023-02-09T12:28:35.995Z,41.60
2023-02-09T12:31:08.101Z,37.00
2023-02-09T12:33:37.777Z,37.85
2023-02-09T12:36:27.255Z,33.67
2023-02-09T12:39:24.198Z,34.67
2023-02-09T12:42:27.178Z,35.03
2023-02-09T12:45:00.667Z,40.42
2023-02-09T12:47:56.812Z,34.88
2023-02-09T12:50:32.899Z,43.20
2023-02-09T12:53:46.985Z,36.47
2023-02-09T12:56:29.895Z,36.45
2023-02-09T12:59:15.350Z,34.10
2023-02-09T13:02:20.695Z,32.08
2023-02-09T13:05:01.673Z,30.00
2023-02-09T13:07:41.274Z,33.92
2023-02-09T13:10:21.877Z,33.38
2023-02-09T13:12:56.955Z,37.60
2023-02-09T13:15:29.209Z,37.25
2023-02-09T13:18:08.367Z,35.42
2023-02-09T13:21:03.096Z,38.22
2023-02-09T13:23:35.393Z,39.80
2023-02-09T13:26:18.815Z,45.78
2023-02-09T13:28:48.182Z,37.38
2023-02-09T13:31:27.316Z,43.33
2023-02-09T13:34:02.466Z,32.22
2023-02-09T13:36:37.145Z,40.33
2023-02-09T13:39:08.836Z,34.53
2023-02-09T13:41:39.102Z,38.60
2023-02-09T13:44:22.721Z,42.28
2023-02-09T13:46:58.615Z,42.85
2023-02-09T13:49:28.555Z,69.18
2023-02-09T13:52:16.427Z,46.92
2023-02-09T13:54:45.255Z,35.25
2023-02-09T13:57:32.006Z,40.80
2023-02-09T14:00:09.532Z,38.33
2023-02-09T14:02:39.161Z,38.70
2023-02-09T14:05:09.247Z,35.30
2023-02-09T14:07:39.071Z,31.30
2023-02-09T14:10:14.134Z,36.55
2023-02-09T14:12:56.944Z,25.95
2023-02-09T14:15:49.476Z,32.42
2023-02-09T14:18:46.046Z,32.13
2023-02-09T14:21:23.474Z,32.35
2023-02-09T14:24:13.055Z,30.17
2023-02-09T14:26:45.562Z,38.22
2023-02-09T14:29:18.224Z,40.22
2023-02-09T14:31:50.466Z,40.60
2023-02-09T14:34:25.014Z,37.10
2023-02-09T14:36:54.761Z,31.27
2023-02-09T14:39:23.413Z,30.65
2023-02-09T14:42:02.848Z,29.35
2023-02-09T14:44:31.501Z,33.67
2023-02-09T14:47:02.018Z,33.95
2023-02-09T14:49:30.615Z,30.58
2023-02-09T14:52:03.436Z,25.30
2023-02-09T14:54:34.051Z,25.92
2023-02-09T14:57:03.870Z,26.73
2023-02-09T14:59:32.425Z,24.70
2023-02-09T15:02:01.821Z,24.77
2023-02-09T15:04:29.801Z,23.83
2023-02-09T15:07:04.296Z,27.75
2023-02-09T15:09:37.648Z,27.92
2023-02-09T15:12:06.467Z,24.13
2023-02-09T15:14:43.235Z,29.27
2023-02-09T15:17:18.272Z,34.88
2023-02-09T15:19:46.905Z,31.25
2023-02-09T15:22:16.767Z,30.17
2023-02-09T15:24:46.059Z,27.08
2023-02-09T15:27:26.983Z,27.40
2023-02-09T15:29:59.106Z,28.10
2023-02-09T15:32:29.901Z,42.50
2023-02-09T15:34:57.840Z,50.90
2023-02-09T15:37:28.525Z,40.35
2023-02-09T15:40:00.089Z,44.05
2023-02-09T15:42:45.859Z,37.38
2023-02-09T15:45:36.838Z,34.08
2023-02-09T15:48:06.648Z,28.30
2023-02-09T15:50:36.021Z,30.92
2023-02-09T15:53:05.514Z,27.85
2023-02-09T15:55:34.829Z,31.58
2023-02-09T15:58:03.276Z,30.70
2023-02-09T16:00:32.354Z,33.35
2023-02-09T16:03:01.900Z,29.25
2023-02-09T16:05:31.561Z,28.02
2023-02-09T16:08:00.373Z,35.38
2023-02-09T16:10:30.293Z,28.77
2023-02-09T16:12:58.339Z,35.13
2023-02-09T16:15:28.234Z,37.13
2023-02-09T16:17:56.211Z,29.92
2023-02-09T16:20:26.039Z,30.10
2023-02-09T16:22:57.820Z,32.85
2023-02-09T16:25:26.974Z,23.92
2023-02-09T16:27:56.553Z,27.02
2023-02-09T16:30:27.026Z,24.83
2023-02-09T16:32:55.652Z,25.30
2023-02-09T16:35:25.497Z,34.60
2023-02-09T16:37:56.388Z,23.77
2023-02-09T16:40:27.559Z,32.65
2023-02-09T16:42:56.661Z,24.73
2023-02-09T16:45:25.427Z,32.30
2023-02-09T16:47:59.149Z,24.10
2023-02-09T16:50:32.999Z,27.67
2023-02-09T16:53:05.037Z,23.27
2023-02-09T16:55:34.801Z,29.40
2023-02-09T16:58:04.644Z,26.33
2023-02-09T17:00:36.209Z,24.45
2023-02-09T17:03:14.062Z,25.02
2023-02-09T17:05:44.887Z,28.52
2023-02-09T17:08:19.314Z,28.77
2023-02-09T17:10:49.032Z,28.60
2023-02-09T17:13:20.681Z,31.17
2023-02-09T17:15:50.912Z,25.48
2023-02-09T17:18:21.678Z,26.42
2023-02-09T17:20:54.288Z,25.60
2023-02-09T17:23:26.013Z,27.50
2023-02-09T17:25:55.663Z,22.08
2023-02-09T17:28:24.548Z,22.67
2023-02-09T17:30:56.487Z,23.55
2023-02-09T17:33:26.820Z,24.58
2023-02-09T17:36:24.609Z,29.35
2023-02-09T17:38:45.749Z,24.67
2023-02-09T17:41:16.335Z,24.98
2023-02-09T17:43:44.617Z,31.27
2023-02-09T17:46:12.818Z,27.45
2023-02-09T17:48:40.776Z,21.58
2023-02-09T17:51:19.047Z,23.95
2023-02-09T17:53:48.934Z,28.77
2023-02-09T17:56:17.023Z,28.73
2023-02-09T17:58:45.578Z,24.55
2023-02-09T18:01:26.712Z,28.10
2023-02-09T18:03:55.642Z,26.65
2023-02-09T18:06:30.032Z,29.80
2023-02-09T18:08:59.350Z,31.63
2023-02-09T18:11:42.073Z,34.15
2023-02-09T18:14:12.983Z,29.00
2023-02-09T18:16:41.363Z,27.08
2023-02-09T18:19:09.676Z,23.10
2023-02-09T18:21:37.669Z,30.40
2023-02-09T18:24:07.995Z,25.17
2023-02-09T18:26:35.996Z,25.80
2023-02-09T18:29:04.015Z,32.13
2023-02-09T18:31:32.001Z,27.63
2023-02-09T18:34:00.094Z,23.35
2023-02-09T18:36:28.128Z,25.00
2023-02-09T18:38:56.281Z,30.10
2023-02-09T18:41:26.047Z,22.23
2023-02-09T18:43:54.613Z,27.05
2023-02-09T18:46:24.568Z,23.58
2023-02-09T18:48:53.109Z,23.65
2023-02-09T18:51:23.446Z,29.27
2023-02-09T18:53:51.918Z,23.35
2023-02-09T18:56:21.172Z,24.80
2023-02-09T18:58:51.323Z,23.98
2023-02-09T19:01:21.426Z,28.35
2023-02-09T19:03:50.276Z,28.73
2023-02-09T19:06:20.492Z,27.98
2023-02-09T19:08:50.330Z,26.73
2023-02-09T19:11:20.425Z,25.83
2023-02-09T19:14:08.665Z,30.38
2023-02-09T19:16:38.143Z,30.48
2023-02-09T19:19:06.116Z,32.17
2023-02-09T19:21:34.073Z,29.45
2023-02-09T19:24:02.876Z,30.95
2023-02-09T19:26:30.823Z,39.95
2023-02-09T19:28:58.858Z,40.45
2023-02-09T19:31:26.872Z,36.38
2023-02-09T19:33:57.788Z,37.08
2023-02-09T19:36:28.217Z,35.63
2023-02-09T19:38:58.821Z,31.08
2023-02-09T19:41:27.029Z,35.10
2023-02-09T19:43:56.341Z,39.13
2023-02-09T19:46:24.381Z,63.35
2023-02-09T19:48:53.907Z,53.63
2023-02-09T19:51:23.744Z,39.42
2023-02-09T19:53:52.096Z,31.85
2023-02-09T19:56:23.436Z,29.10
2023-02-09T19:58:51.972Z,27.90
2023-02-09T20:01:20.570Z,27.15
2023-02-09T20:03:49.631Z,27.30
2023-02-09T20:06:17.939Z,47.83
2023-02-09T20:08:47.293Z,44.33
2023-02-09T20:11:19.266Z,45.17
2023-02-09T20:13:51.054Z,48.28
2023-02-09T20:16:22.390Z,40.78
2023-02-09T20:18:50.985Z,40.25
2023-02-09T20:21:21.716Z,37.17
2023-02-09T20:23:54.772Z,49.50
2023-02-09T20:26:26.574Z,38.08
2023-02-09T20:28:54.686Z,44.88
2023-02-09T20:31:24.827Z,45.90
2023-02-09T20:33:53.186Z,36.25
2023-02-09T20:36:23.239Z,44.70
2023-02-09T20:38:53.977Z,43.63
2023-02-09T20:41:22.488Z,44.63
2023-02-09T20:44:07.849Z,40.05
2023-02-09T20:46:54.142Z,44.90
2023-02-09T20:49:22.268Z,42.10
2023-02-09T20:51:50.512Z,49.35
2023-02-09T20:54:19.896Z,39.42
2023-02-09T20:56:47.829Z,41.80
2023-02-09T20:59:16.633Z,40.72
2023-02-09T21:01:46.027Z,43.15
2023-02-09T21:04:14.046Z,35.58
2023-02-09T21:06:41.995Z,46.83
2023-02-09T21:09:13.188Z,39.05
2023-02-09T21:11:42.848Z,39.28
2023-02-09T21:14:21.736Z,41.17
2023-02-09T21:16:58.810Z,33.92
2023-02-09T21:19:26.880Z,42.47
2023-02-09T21:21:54.925Z,49.45
2023-02-09T21:24:23.184Z,51.45
2023-02-09T21:26:52.625Z,66.22
2023-02-09T21:29:20.620Z,65.10
2023-02-09T21:31:48.630Z,54.45
2023-02-09T21:34:17.197Z,53.22
2023-02-09T21:36:45.157Z,42.20
2023-02-09T21:39:13.718Z,50.13
2023-02-09T21:41:58.875Z,34.53
2023-02-09T21:44:28.258Z,45.80
2023-02-09T21:46:56.201Z,46.70
2023-02-09T21:49:24.213Z,39.42
2023-02-09T21:51:52.154Z,43.00
2023-02-09T21:54:20.166Z,49.72
2023-02-09T21:56:48.136Z,51.63
2023-02-09T21:59:16.085Z,51.58
2023-02-09T22:01:46.111Z,40.20
2023-02-09T22:04:17.086Z,47.20
2023-02-09T22:06:47.052Z,43.03
2023-02-09T22:09:21.103Z,46.20
2023-02-09T22:11:49.182Z,41.33
2023-02-09T22:14:18.205Z,45.80
2023-02-09T22:16:47.776Z,50.80
2023-02-09T22:19:17.309Z,53.28
2023-02-09T22:21:45.386Z,62.00
2023-02-09T22:24:17.250Z,63.85
2023-02-09T22:26:47.070Z,63.22
2023-02-09T22:29:17.141Z,63.50
2023-02-09T22:31:47.425Z,58.92
2023-02-09T22:34:17.072Z,61.20
2023-02-09T22:36:47.349Z,64.05
2023-02-09T22:39:15.387Z,52.03
2023-02-09T22:41:48.028Z,49.25
2023-02-09T22:44:17.506Z,59.58
2023-02-09T22:46:48.901Z,50.33
2023-02-09T22:49:20.130Z,44.75
2023-02-09T22:51:50.072Z,48.55
2023-02-09T22:54:20.514Z,41.45
2023-02-09T22:56:48.555Z,45.15
2023-02-09T22:59:16.943Z,40.85
2023-02-09T23:01:45.670Z,48.08
2023-02-09T23:04:13.806Z,56.63
2023-02-09T23:06:43.207Z,46.28
2023-02-09T23:09:12.727Z,54.35
2023-02-09T23:11:40.962Z,56.47
2023-02-09T23:14:11.017Z,66.93
2023-02-09T23:16:40.532Z,66.40
2023-02-09T23:19:13.141Z,64.93
2023-02-09T23:21:44.506Z,81.50
2023-02-09T23:24:13.140Z,85.22
2023-02-09T23:26:41.634Z,71.80
2023-02-09T23:29:11.243Z,75.97
2023-02-09T23:31:40.134Z,74.07
2023-02-09T23:34:08.744Z,69.47
2023-02-09T23:36:36.998Z,59.05
2023-02-09T23:39:07.860Z,70.57
2023-02-09T23:41:36.396Z,58.42
2023-02-09T23:44:04.731Z,54.42
2023-02-09T23:46:32.773Z,70.40
2023-02-09T23:49:01.392Z,75.35
2023-02-09T23:51:30.948Z,65.20
2023-02-09T23:54:00.949Z,59.85
2023-02-09T23:56:36.846Z,59.75
2023-02-09T23:59:07.006Z,57.17
